Terminal Aerodrome Forecast
Issued by NWS Wakefield, VA

Home | Current Version | Previous Version | Text Only | Print | Product List | Glossary On
Versions: 1 2 3 4 5 6 7 8 9 10 11 12 13 14 15 16 17 18 19 20 21 22 23 24 25
254
FTUS41 KAKQ 182320
TAFSBY
TAF
KSBY 182320Z 1900/1924 31005KT P6SM BKN200
     FM191500 14006KT P6SM OVC070
     FM191900 17007KT P6SM -RA OVC025
     FM192000 19008KT 4SM -RA BR OVC015
     FM192100 19008KT 5SM -RA BR OVC008=

USA.gov is the U.S. government's official web portal to all federal, state and local government web resources and services.